Genoa Township, Michigan
Current Conditions -  °F | °C
As of 10:35 AM on Saturday 25 Oct 2014 (Local Time) from KOZW Reporting Station
Haze Haze  
Wind Chill: 56°   Ceiling: 1000
Heat Index: 56°   Visibility: 5mi
Dew Point: 53°   Wind: 15mph
Humidity: 90%   Direction: 260°W
Pressure: 29.82"   Gusts: 21mph
Location:  42.5333°N, 83.7735°W
Report Text: KOZW 251435Z AUTO 26013G18KT 5SM BR OVC010 13/12 A2982 RMK AO2 T01310115
Loading
Personal Weather Stations






























Interactive Weather Map
Tropical Storm Tracking
New forecast layout! Learn more

10-Day Weather Forecast

Advertisements
Track Severe Weather on mobile